createdAt,value
2016-09-05T00:00:00.846Z,0
2016-09-05T00:01:01.495Z,0
2016-09-05T00:02:02.129Z,0
2016-09-05T00:03:02.753Z,0
2016-09-05T00:04:03.405Z,0
2016-09-05T00:05:04.051Z,0
2016-09-05T00:06:04.697Z,0
2016-09-05T00:07:05.373Z,0
2016-09-05T00:08:06.103Z,0
2016-09-05T00:09:06.707Z,0
2016-09-05T00:10:07.409Z,0
2016-09-05T00:11:08.062Z,0
2016-09-05T00:12:08.692Z,0
2016-09-05T00:13:09.313Z,0
2016-09-05T00:14:09.934Z,0
2016-09-05T00:15:10.603Z,0
2016-09-05T00:16:11.242Z,0
2016-09-05T00:17:11.891Z,0
2016-09-05T00:18:12.560Z,0
2016-09-05T00:19:13.234Z,0
2016-09-05T00:20:13.873Z,0
2016-09-05T00:21:14.530Z,0
2016-09-05T00:22:15.195Z,0
2016-09-05T00:23:15.850Z,0
2016-09-05T00:24:16.494Z,0
2016-09-05T00:25:17.147Z,0
2016-09-05T00:26:17.781Z,0
2016-09-05T00:27:18.418Z,0
2016-09-05T00:28:19.047Z,0
2016-09-05T00:29:19.679Z,0
2016-09-05T00:30:20.327Z,0
2016-09-05T00:31:20.963Z,0
2016-09-05T00:32:21.609Z,0
2016-09-05T00:33:22.250Z,0
2016-09-05T00:34:22.911Z,0
2016-09-05T00:35:23.582Z,0
2016-09-05T00:36:24.213Z,0
2016-09-05T00:37:24.847Z,0
2016-09-05T00:38:25.472Z,0
2016-09-05T00:39:26.094Z,0
2016-09-05T00:40:26.753Z,0
2016-09-05T00:41:27.377Z,0
2016-09-05T00:42:28.010Z,0
2016-09-05T00:43:28.644Z,0
2016-09-05T00:44:29.292Z,0
2016-09-05T00:45:29.948Z,0
2016-09-05T00:46:30.600Z,0
2016-09-05T00:47:31.252Z,0
2016-09-05T00:48:31.923Z,0
2016-09-05T00:49:32.574Z,0
2016-09-05T00:50:33.228Z,0
2016-09-05T00:51:33.893Z,0
2016-09-05T00:52:34.554Z,0
2016-09-05T00:53:35.199Z,0
2016-09-05T00:54:35.865Z,0
2016-09-05T00:55:36.500Z,0
2016-09-05T00:56:37.141Z,0
2016-09-05T00:57:37.789Z,0
2016-09-05T00:58:38.459Z,0
2016-09-05T00:59:39.099Z,0
2016-09-05T01:00:39.736Z,0
2016-09-05T01:01:40.411Z,0
2016-09-05T01:02:41.045Z,0
2016-09-05T01:03:41.697Z,0
2016-09-05T01:04:42.396Z,0
2016-09-05T01:05:43.039Z,0
2016-09-05T01:06:43.683Z,0
2016-09-05T01:07:44.317Z,0
2016-09-05T01:08:45.000Z,0
2016-09-05T01:09:45.596Z,0
2016-09-05T01:10:46.249Z,0
2016-09-05T01:11:46.884Z,0
2016-09-05T01:12:47.527Z,0
2016-09-05T01:13:48.153Z,0
2016-09-05T01:14:48.790Z,0
2016-09-05T01:15:49.429Z,0
2016-09-05T01:16:50.063Z,0
2016-09-05T01:17:50.706Z,0
2016-09-05T01:18:51.338Z,0
2016-09-05T01:19:51.978Z,0
2016-09-05T01:20:52.610Z,0
2016-09-05T01:21:53.248Z,0
2016-09-05T01:22:53.896Z,0
2016-09-05T01:23:54.587Z,0
2016-09-05T01:24:55.245Z,0
2016-09-05T01:25:55.895Z,0
2016-09-05T01:26:56.542Z,0
2016-09-05T01:27:57.183Z,0
2016-09-05T01:28:57.818Z,0
2016-09-05T01:29:58.450Z,0
2016-09-05T01:30:59.091Z,0
2016-09-05T01:31:59.762Z,0
2016-09-05T01:33:00.389Z,0
2016-09-05T01:34:01.012Z,0
2016-09-05T01:35:01.637Z,0
2016-09-05T01:36:02.263Z,0
2016-09-05T01:37:02.891Z,0
2016-09-05T01:38:03.544Z,0
2016-09-05T01:39:04.170Z,0
2016-09-05T01:40:04.830Z,0
2016-09-05T01:41:05.460Z,0
2016-09-05T01:42:06.087Z,0
2016-09-05T01:43:06.715Z,0
2016-09-05T01:44:07.368Z,0
2016-09-05T01:45:07.994Z,0
2016-09-05T01:46:08.649Z,0
2016-09-05T01:47:09.288Z,0
2016-09-05T01:48:09.909Z,0
2016-09-05T01:49:10.579Z,0
2016-09-05T01:50:11.201Z,0
2016-09-05T01:51:11.923Z,0
2016-09-05T01:52:12.551Z,0
2016-09-05T01:53:13.205Z,0
2016-09-05T01:54:13.838Z,0
2016-09-05T01:55:14.511Z,0
2016-09-05T01:56:15.170Z,0
2016-09-05T01:57:15.810Z,0
2016-09-05T01:58:16.454Z,0
2016-09-05T01:59:17.105Z,0
2016-09-05T02:00:17.740Z,0
2016-09-05T02:01:18.376Z,0
2016-09-05T02:02:19.059Z,0
2016-09-05T02:03:19.718Z,0
2016-09-05T02:04:20.349Z,0
2016-09-05T02:05:20.982Z,0
2016-09-05T02:06:21.624Z,0
2016-09-05T02:07:22.272Z,0
2016-09-05T02:08:22.915Z,0
2016-09-05T02:09:23.569Z,0
2016-09-05T02:10:24.194Z,0
2016-09-05T02:11:24.813Z,0
2016-09-05T02:12:25.429Z,0
2016-09-05T02:13:26.051Z,0
2016-09-05T02:14:26.671Z,0
2016-09-05T02:15:27.296Z,0
2016-09-05T02:16:27.913Z,0
2016-09-05T02:17:28.533Z,0
2016-09-05T02:18:29.162Z,0
2016-09-05T02:19:29.800Z,0
2016-09-05T02:20:30.426Z,0
2016-09-05T02:21:31.067Z,0
2016-09-05T02:22:31.710Z,0
2016-09-05T02:23:32.332Z,0
2016-09-05T02:24:32.991Z,0
2016-09-05T02:25:33.641Z,0
2016-09-05T02:26:34.263Z,0
2016-09-05T02:27:34.901Z,0
2016-09-05T02:28:35.536Z,0
2016-09-05T02:29:36.192Z,0
2016-09-05T02:30:36.827Z,0
2016-09-05T02:31:37.472Z,0
2016-09-05T02:32:38.111Z,0
2016-09-05T02:33:38.732Z,0
2016-09-05T02:34:39.350Z,0
2016-09-05T02:35:39.997Z,0
2016-09-05T02:36:40.673Z,0
2016-09-05T02:37:41.338Z,0
2016-09-05T02:38:41.959Z,0
2016-09-05T02:39:42.589Z,0
2016-09-05T02:40:43.210Z,0
2016-09-05T02:41:43.841Z,0
2016-09-05T02:42:44.462Z,0
2016-09-05T02:43:45.119Z,0
2016-09-05T02:44:45.809Z,0
2016-09-05T02:45:46.467Z,0
2016-09-05T02:46:47.139Z,0
2016-09-05T02:47:47.766Z,0
2016-09-05T02:48:48.405Z,0
2016-09-05T02:49:49.030Z,0
2016-09-05T02:50:49.679Z,0
2016-09-05T02:51:50.335Z,0
2016-09-05T02:52:50.963Z,0
2016-09-05T02:53:51.587Z,0
2016-09-05T02:54:52.207Z,0
2016-09-05T02:55:52.828Z,0
2016-09-05T02:56:53.472Z,0
2016-09-05T02:57:54.092Z,0
2016-09-05T02:58:54.721Z,0
2016-09-05T02:59:55.380Z,0
2016-09-05T03:00:56.036Z,0
2016-09-05T03:01:56.670Z,0
2016-09-05T03:02:57.291Z,0
2016-09-05T03:03:57.930Z,0
2016-09-05T03:04:58.570Z,0
2016-09-05T03:05:59.233Z,0
2016-09-05T03:06:59.855Z,0
2016-09-05T03:08:00.484Z,0
2016-09-05T03:09:01.106Z,0
2016-09-05T03:10:01.731Z,0
2016-09-05T03:11:02.383Z,0
2016-09-05T03:12:03.010Z,0
2016-09-05T03:13:03.627Z,0
2016-09-05T03:14:04.252Z,0
2016-09-05T03:15:04.878Z,0
2016-09-05T03:16:05.496Z,0
2016-09-05T03:17:06.112Z,0
2016-09-05T03:18:06.735Z,0
2016-09-05T03:19:07.352Z,0
2016-09-05T03:20:07.978Z,0
2016-09-05T03:21:08.608Z,0
2016-09-05T03:22:09.217Z,0
2016-09-05T03:23:09.846Z,0
2016-09-05T03:24:10.464Z,0
2016-09-05T03:25:11.082Z,0
2016-09-05T03:26:11.724Z,0
2016-09-05T03:27:12.365Z,0
2016-09-05T03:28:12.998Z,0
2016-09-05T03:29:13.632Z,0
2016-09-05T03:30:14.258Z,0
2016-09-05T03:31:14.901Z,0
2016-09-05T03:32:15.527Z,0
2016-09-05T03:33:16.144Z,0
2016-09-05T03:34:16.782Z,0
2016-09-05T03:35:17.434Z,0
2016-09-05T03:36:18.065Z,0
2016-09-05T03:37:18.698Z,0
2016-09-05T03:38:19.318Z,0
2016-09-05T03:39:19.934Z,0
2016-09-05T03:40:20.561Z,0
2016-09-05T03:41:21.175Z,0
2016-09-05T03:42:21.828Z,0
2016-09-05T03:43:22.502Z,0
2016-09-05T03:44:23.147Z,0
2016-09-05T03:45:23.762Z,0
2016-09-05T03:46:24.384Z,0
2016-09-05T03:47:25.054Z,0
2016-09-05T03:48:25.701Z,0
2016-09-05T03:49:26.341Z,0
2016-09-05T03:50:26.985Z,0
2016-09-05T03:51:27.626Z,0
2016-09-05T03:52:28.251Z,0
2016-09-05T03:53:28.914Z,0
2016-09-05T03:54:29.558Z,0
2016-09-05T03:55:30.194Z,0
2016-09-05T03:56:30.853Z,0
2016-09-05T03:57:31.504Z,0
2016-09-05T03:58:32.171Z,0
2016-09-05T03:59:32.807Z,0
2016-09-05T04:00:33.442Z,0
2016-09-05T04:01:34.081Z,0
2016-09-05T04:02:34.710Z,0
2016-09-05T04:03:35.345Z,0
2016-09-05T04:04:35.992Z,0
2016-09-05T04:05:36.635Z,0
2016-09-05T04:06:37.262Z,0
2016-09-05T04:07:37.887Z,0
2016-09-05T04:08:38.518Z,0
2016-09-05T04:09:39.165Z,0
2016-09-05T04:10:39.790Z,0
2016-09-05T04:11:40.427Z,0
2016-09-05T04:12:41.071Z,0
2016-09-05T04:13:41.712Z,0
2016-09-05T04:14:42.362Z,0
2016-09-05T04:15:43.006Z,0
2016-09-05T04:16:43.641Z,0
2016-09-05T04:17:44.279Z,0
2016-09-05T04:18:44.908Z,0
2016-09-05T04:19:45.543Z,0
2016-09-05T04:20:46.173Z,0
2016-09-05T04:21:46.812Z,0
2016-09-05T04:22:47.450Z,0
2016-09-05T04:23:48.100Z,0
2016-09-05T04:24:48.765Z,0
2016-09-05T04:25:49.407Z,0
2016-09-05T04:26:50.053Z,0
2016-09-05T04:27:50.703Z,0
2016-09-05T04:28:51.344Z,0
2016-09-05T04:29:51.973Z,0
2016-09-05T04:30:52.624Z,0
2016-09-05T04:31:53.276Z,0
2016-09-05T04:32:53.922Z,0
2016-09-05T04:33:54.567Z,0
2016-09-05T04:34:55.220Z,0
2016-09-05T04:35:55.899Z,0
2016-09-05T04:36:56.535Z,0
2016-09-05T04:37:57.200Z,0
2016-09-05T04:38:57.835Z,0
2016-09-05T04:39:58.487Z,0
2016-09-05T04:40:59.132Z,0
2016-09-05T04:41:59.785Z,0
2016-09-05T04:43:00.490Z,0
2016-09-05T04:44:01.140Z,5
2016-09-05T04:45:01.763Z,5
2016-09-05T04:46:02.423Z,5
2016-09-05T04:47:03.057Z,5
2016-09-05T04:48:03.722Z,5
2016-09-05T04:49:04.370Z,5
2016-09-05T04:50:05.010Z,5
2016-09-05T04:51:05.643Z,5
2016-09-05T04:52:06.272Z,10
2016-09-05T04:53:06.925Z,10
2016-09-05T04:54:07.584Z,10
2016-09-05T04:55:08.232Z,10
2016-09-05T04:56:08.844Z,10
2016-09-05T04:57:09.475Z,10
2016-09-05T04:58:10.153Z,10
2016-09-05T04:59:10.829Z,10
2016-09-05T05:00:11.486Z,10
2016-09-05T05:01:12.139Z,10
2016-09-05T05:02:12.781Z,10
2016-09-05T05:03:13.403Z,10
2016-09-05T05:04:14.049Z,10
2016-09-05T05:05:14.690Z,10
2016-09-05T05:06:15.342Z,10
2016-09-05T05:07:16.038Z,15
2016-09-05T05:08:16.693Z,15
2016-09-05T05:09:17.375Z,15
2016-09-05T05:10:18.005Z,20
2016-09-05T05:11:18.650Z,20
2016-09-05T05:12:19.288Z,15
2016-09-05T05:13:19.944Z,15
2016-09-05T05:14:20.583Z,15
2016-09-05T05:15:21.229Z,15
2016-09-05T05:16:21.868Z,15
2016-09-05T05:17:22.497Z,10
2016-09-05T05:18:23.157Z,10
2016-09-05T05:19:23.770Z,15
2016-09-05T05:20:24.407Z,15
2016-09-05T05:21:25.068Z,15
2016-09-05T05:22:25.707Z,15
2016-09-05T05:23:26.359Z,15
2016-09-05T05:24:27.004Z,15
2016-09-05T05:25:27.644Z,15
2016-09-05T05:26:28.285Z,20
2016-09-05T05:27:28.922Z,25
2016-09-05T05:28:29.562Z,25
2016-09-05T05:29:30.212Z,30
2016-09-05T05:30:30.846Z,30
2016-09-05T05:31:31.494Z,30
2016-09-05T05:32:32.147Z,30
2016-09-05T05:33:32.787Z,30
2016-09-05T05:34:33.438Z,30
2016-09-05T05:35:34.083Z,35
2016-09-05T05:36:34.719Z,25
2016-09-05T05:37:35.361Z,30
2016-09-05T05:38:36.009Z,35
2016-09-05T05:39:36.639Z,40
2016-09-05T05:40:37.294Z,35
2016-09-05T05:41:37.954Z,35
2016-09-05T05:42:38.617Z,40
2016-09-05T05:43:39.259Z,35
2016-09-05T05:44:39.912Z,35
2016-09-05T05:45:40.571Z,40
2016-09-05T05:46:41.213Z,40
2016-09-05T05:47:41.852Z,40
2016-09-05T05:48:42.503Z,40
2016-09-05T05:49:43.165Z,45
2016-09-05T05:50:43.840Z,40
2016-09-05T05:51:44.519Z,45
2016-09-05T05:52:45.154Z,50
2016-09-05T05:53:45.798Z,50
2016-09-05T05:54:46.447Z,55
2016-09-05T05:55:47.107Z,60
2016-09-05T05:56:47.741Z,60
2016-09-05T05:57:48.391Z,70
2016-09-05T05:58:49.031Z,75
2016-09-05T05:59:49.669Z,65
2016-09-05T06:00:50.578Z,55
2016-09-05T06:01:51.233Z,60
2016-09-05T06:02:51.860Z,60
2016-09-05T06:03:52.501Z,65
2016-09-05T06:04:53.153Z,65
2016-09-05T06:05:53.801Z,75
2016-09-05T06:06:54.428Z,65
2016-09-05T06:07:55.065Z,65
2016-09-05T06:08:55.688Z,70
2016-09-05T06:09:56.347Z,60
2016-09-05T06:10:56.989Z,55
2016-09-05T06:11:57.642Z,55
2016-09-05T06:12:58.263Z,55
2016-09-05T06:13:58.911Z,60
2016-09-05T06:14:59.581Z,75
2016-09-05T06:16:00.220Z,100
2016-09-05T06:17:00.850Z,105
2016-09-05T06:18:01.469Z,105
2016-09-05T06:19:02.184Z,115
2016-09-05T06:20:02.823Z,115
2016-09-05T06:21:03.470Z,160
2016-09-05T06:22:04.154Z,220
2016-09-05T06:23:04.785Z,265
2016-09-05T06:24:05.403Z,235
2016-09-05T06:25:06.031Z,210
2016-09-05T06:26:06.669Z,285
2016-09-05T06:27:07.300Z,285
2016-09-05T06:28:07.940Z,150
2016-09-05T06:29:08.589Z,220
2016-09-05T06:30:09.226Z,175
2016-09-05T06:31:09.901Z,165
2016-09-05T06:32:10.540Z,170
2016-09-05T06:33:11.176Z,180
2016-09-05T06:34:11.812Z,325
2016-09-05T06:35:12.453Z,365
2016-09-05T06:36:13.092Z,315
2016-09-05T06:37:13.728Z,290
2016-09-05T06:38:14.357Z,305
2016-09-05T06:39:15.032Z,230
2016-09-05T06:40:15.809Z,255
2016-09-05T06:41:16.441Z,195
2016-09-05T06:42:17.082Z,170
2016-09-05T06:43:18.054Z,130
2016-09-05T06:44:18.508Z,110
2016-09-05T06:45:19.169Z,100
2016-09-05T06:46:19.828Z,85
2016-09-05T06:47:20.476Z,85
2016-09-05T06:48:21.101Z,105
2016-09-05T06:49:21.735Z,110
2016-09-05T06:50:22.364Z,105
2016-09-05T06:51:22.999Z,95
2016-09-05T06:52:23.654Z,100
2016-09-05T06:53:24.293Z,105
2016-09-05T06:54:24.956Z,100
2016-09-05T06:55:25.597Z,160
2016-09-05T06:56:26.241Z,225
2016-09-05T06:57:26.874Z,190
2016-09-05T06:58:27.539Z,195
2016-09-05T06:59:28.175Z,165
2016-09-05T07:00:28.837Z,250
2016-09-05T07:01:29.459Z,230
2016-09-05T07:02:30.133Z,210
2016-09-05T07:03:30.753Z,205
2016-09-05T07:04:31.388Z,200
2016-09-05T07:05:32.046Z,200
2016-09-05T07:06:32.681Z,155
2016-09-05T07:07:33.355Z,145
2016-09-05T07:08:34.023Z,150
2016-09-05T07:09:34.690Z,140
2016-09-05T07:10:35.350Z,145
2016-09-05T07:11:35.978Z,145
2016-09-05T07:12:36.609Z,130
2016-09-05T07:13:37.261Z,145
2016-09-05T07:14:37.893Z,170
2016-09-05T07:15:38.507Z,145
2016-09-05T07:16:39.139Z,100
2016-09-05T07:17:39.761Z,85
2016-09-05T07:18:40.378Z,100
2016-09-05T07:19:41.016Z,75
2016-09-05T07:20:41.674Z,85
2016-09-05T07:21:42.307Z,105
2016-09-05T07:22:42.965Z,120
2016-09-05T07:23:43.586Z,115
2016-09-05T07:24:44.871Z,115
2016-09-05T07:25:46.074Z,110
2016-09-05T07:26:46.692Z,105
2016-09-05T07:27:47.322Z,115
2016-09-05T07:28:47.985Z,130
2016-09-05T07:29:48.619Z,115
2016-09-05T07:30:49.251Z,115
2016-09-05T07:31:49.898Z,90
2016-09-05T07:32:50.552Z,80
2016-09-05T07:33:51.168Z,90
2016-09-05T07:34:51.809Z,105
2016-09-05T07:35:52.520Z,110
2016-09-05T07:36:53.157Z,105
2016-09-05T07:37:53.789Z,105
2016-09-05T07:38:54.445Z,95
2016-09-05T07:39:55.112Z,125
2016-09-05T07:40:55.757Z,135
2016-09-05T07:41:56.419Z,125
2016-09-05T07:42:57.057Z,115
2016-09-05T07:43:57.689Z,100
2016-09-05T07:44:58.339Z,100
2016-09-05T07:45:58.979Z,110
2016-09-05T07:46:59.615Z,120
2016-09-05T07:48:00.249Z,130
2016-09-05T07:49:00.901Z,125
2016-09-05T07:50:01.560Z,115
2016-09-05T07:51:02.211Z,110
2016-09-05T07:52:02.849Z,110
2016-09-05T07:53:03.477Z,105
2016-09-05T07:54:04.104Z,100
2016-09-05T07:55:04.759Z,110
2016-09-05T07:56:05.400Z,115
2016-09-05T07:57:06.042Z,115
2016-09-05T07:58:06.671Z,110
2016-09-05T07:59:07.305Z,135
2016-09-05T08:00:07.951Z,130
2016-09-05T08:01:08.576Z,150
2016-09-05T08:02:09.201Z,160
2016-09-05T08:03:09.826Z,145
2016-09-05T08:04:10.456Z,165
2016-09-05T08:05:11.075Z,125
2016-09-05T08:06:11.713Z,130
2016-09-05T08:07:12.404Z,135
2016-09-05T08:08:13.040Z,125
2016-09-05T08:09:13.682Z,120
2016-09-05T08:10:14.313Z,110
2016-09-05T08:11:14.949Z,125
2016-09-05T08:12:15.583Z,125
2016-09-05T08:13:16.218Z,115
2016-09-05T08:14:16.834Z,145
2016-09-05T08:15:17.480Z,165
2016-09-05T08:16:18.112Z,155
2016-09-05T08:17:18.740Z,155
2016-09-05T08:18:19.366Z,150
2016-09-05T08:19:20.024Z,150
2016-09-05T08:20:20.653Z,140
2016-09-05T08:21:21.317Z,150
2016-09-05T08:22:21.952Z,175
2016-09-05T08:23:22.589Z,190
2016-09-05T08:24:23.240Z,230
2016-09-05T08:25:23.872Z,270
2016-09-05T08:26:24.488Z,305
2016-09-05T08:27:25.130Z,315
2016-09-05T08:28:25.763Z,260
2016-09-05T08:29:26.395Z,315
2016-09-05T08:30:27.049Z,300
2016-09-05T08:31:27.676Z,250
2016-09-05T08:32:28.294Z,300
2016-09-05T08:33:28.940Z,620
2016-09-05T08:34:29.595Z,500
2016-09-05T08:35:30.216Z,375
2016-09-05T08:36:30.914Z,420
2016-09-05T08:37:31.488Z,405
2016-09-05T08:38:32.132Z,335
2016-09-05T08:39:32.761Z,345
2016-09-05T08:40:33.399Z,380
2016-09-05T08:41:34.061Z,450
2016-09-05T08:42:34.682Z,530
2016-09-05T08:43:35.298Z,480
2016-09-05T08:44:35.934Z,480
2016-09-05T08:45:36.577Z,1270
2016-09-05T08:46:37.215Z,1330
2016-09-05T08:47:37.841Z,2835
2016-09-05T08:48:38.477Z,1595
2016-09-05T08:49:39.130Z,2040
2016-09-05T08:50:39.777Z,2710
2016-09-05T08:51:40.419Z,2775
2016-09-05T08:52:41.068Z,3010
2016-09-05T08:53:41.728Z,870
2016-09-05T08:54:42.398Z,1325
2016-09-05T08:55:43.029Z,1005
2016-09-05T08:56:44.394Z,605
2016-09-05T08:57:45.035Z,450
2016-09-05T08:58:45.692Z,780
2016-09-05T08:59:46.321Z,705
2016-09-05T09:00:46.948Z,845
2016-09-05T09:01:47.602Z,1170
2016-09-05T09:02:48.265Z,1305
2016-09-05T09:03:48.906Z,1090
2016-09-05T09:04:49.573Z,855
2016-09-05T09:05:50.224Z,1495
2016-09-05T09:06:50.879Z,1210
2016-09-05T09:07:51.528Z,1730
2016-09-05T09:08:52.181Z,2180
2016-09-05T09:09:52.848Z,1785
2016-09-05T09:10:53.508Z,1035
2016-09-05T09:11:54.143Z,1825
2016-09-05T09:12:54.805Z,680
2016-09-05T09:13:55.585Z,990
2016-09-05T09:14:56.295Z,1075
2016-09-05T09:15:56.998Z,1130
2016-09-05T09:16:57.647Z,535
2016-09-05T09:17:58.286Z,430
2016-09-05T09:18:58.927Z,265
2016-09-05T09:19:59.583Z,165
2016-09-05T09:21:00.221Z,115
2016-09-05T09:22:00.856Z,80
2016-09-05T09:23:01.488Z,75
2016-09-05T09:24:02.163Z,65
2016-09-05T09:25:02.817Z,60
2016-09-05T09:26:03.439Z,55
2016-09-05T09:27:04.088Z,80
2016-09-05T09:28:04.731Z,100
2016-09-05T09:29:05.385Z,130
2016-09-05T09:30:06.026Z,185
2016-09-05T09:31:06.667Z,240
2016-09-05T09:32:07.305Z,285
2016-09-05T09:33:07.967Z,330
2016-09-05T09:34:08.614Z,365
2016-09-05T09:35:09.278Z,430
2016-09-05T09:36:09.905Z,435
2016-09-05T09:37:10.531Z,455
2016-09-05T09:38:11.191Z,485
2016-09-05T09:39:11.816Z,580
2016-09-05T09:40:12.437Z,650
2016-09-05T09:41:13.080Z,640
2016-09-05T09:42:13.730Z,505
2016-09-05T09:43:14.356Z,380
2016-09-05T09:44:14.979Z,350
2016-09-05T09:45:15.652Z,365
2016-09-05T09:46:16.307Z,405
2016-09-05T09:47:16.930Z,445
2016-09-05T09:48:17.592Z,455
2016-09-05T09:49:18.231Z,340
2016-09-05T09:50:18.897Z,330
2016-09-05T09:51:19.529Z,255
2016-09-05T09:52:20.163Z,180
2016-09-05T09:53:20.801Z,145
2016-09-05T09:54:21.445Z,165
2016-09-05T09:55:22.094Z,170
2016-09-05T09:56:22.736Z,175
2016-09-05T09:57:23.390Z,185
2016-09-05T09:58:24.046Z,185
2016-09-05T09:59:24.701Z,170
2016-09-05T10:00:25.331Z,135
2016-09-05T10:01:25.981Z,110
2016-09-05T10:02:26.671Z,110
2016-09-05T10:03:27.318Z,105
2016-09-05T10:04:27.957Z,95
2016-09-05T10:05:28.594Z,85
2016-09-05T10:06:29.215Z,90
2016-09-05T10:07:29.831Z,95
2016-09-05T10:08:30.461Z,100
2016-09-05T10:09:31.089Z,105
2016-09-05T10:10:31.730Z,115
2016-09-05T10:11:32.369Z,125
2016-09-05T10:12:33.027Z,145
2016-09-05T10:13:33.667Z,170
2016-09-05T10:14:34.434Z,210
2016-09-05T10:15:35.066Z,230
2016-09-05T10:16:35.692Z,235
2016-09-05T10:17:36.332Z,230
2016-09-05T10:18:36.984Z,235
2016-09-05T10:19:37.643Z,240
2016-09-05T10:20:38.304Z,245
2016-09-05T10:21:38.942Z,260
2016-09-05T10:22:39.612Z,290
2016-09-05T10:23:40.267Z,340
2016-09-05T10:24:40.916Z,410
2016-09-05T10:25:41.563Z,510
2016-09-05T10:26:42.241Z,565
2016-09-05T10:27:42.878Z,585
2016-09-05T10:28:43.532Z,580
2016-09-05T10:29:44.199Z,570
2016-09-05T10:30:44.839Z,485
2016-09-05T10:31:45.496Z,395
2016-09-05T10:32:46.137Z,315
2016-09-05T10:33:46.778Z,265
2016-09-05T10:34:47.409Z,215
2016-09-05T10:35:48.026Z,170
2016-09-05T10:36:48.703Z,130
2016-09-05T10:37:49.342Z,100
2016-09-05T10:38:50.083Z,85
2016-09-05T10:39:50.724Z,65
2016-09-05T10:40:51.387Z,50
2016-09-05T10:41:52.027Z,45
2016-09-05T10:42:52.675Z,40
2016-09-05T10:43:53.321Z,45
2016-09-05T10:44:53.943Z,45
2016-09-05T10:45:54.581Z,55
2016-09-05T10:46:55.231Z,65
2016-09-05T10:47:55.880Z,65
2016-09-05T10:48:56.513Z,65
2016-09-05T10:49:57.136Z,70
2016-09-05T10:50:57.769Z,75
2016-09-05T10:51:58.400Z,80
2016-09-05T10:52:59.030Z,85
2016-09-05T10:53:59.665Z,90
2016-09-05T10:55:00.296Z,95
2016-09-05T10:56:00.947Z,100
2016-09-05T10:57:01.600Z,110
2016-09-05T10:58:02.242Z,125
2016-09-05T10:59:02.883Z,135
2016-09-05T11:00:03.515Z,150
2016-09-05T11:01:04.168Z,155
2016-09-05T11:02:04.813Z,170
2016-09-05T11:03:05.441Z,180
2016-09-05T11:04:06.082Z,195
2016-09-05T11:05:06.720Z,205
2016-09-05T11:06:07.355Z,220
2016-09-05T11:07:07.989Z,230
2016-09-05T11:08:08.625Z,245
2016-09-05T11:09:09.250Z,260
2016-09-05T11:10:09.879Z,280
2016-09-05T11:11:10.546Z,305
2016-09-05T11:12:11.221Z,330
2016-09-05T11:13:11.858Z,355
2016-09-05T11:14:12.488Z,380
2016-09-05T11:15:13.126Z,410
2016-09-05T11:16:13.756Z,435
2016-09-05T11:17:14.384Z,460
2016-09-05T11:18:15.028Z,445
2016-09-05T11:19:15.721Z,380
2016-09-05T11:20:16.378Z,320
2016-09-05T11:21:17.013Z,275
2016-09-05T11:22:17.641Z,245
2016-09-05T11:23:18.309Z,235
2016-09-05T11:24:19.208Z,205
2016-09-05T11:25:19.884Z,190
2016-09-05T11:26:20.532Z,175
2016-09-05T11:27:21.181Z,150
2016-09-05T11:28:21.930Z,140
2016-09-05T11:29:22.580Z,125
2016-09-05T11:30:23.258Z,110
2016-09-05T11:31:23.938Z,100
2016-09-05T11:32:24.607Z,95
2016-09-05T11:33:25.247Z,100
2016-09-05T11:34:25.884Z,95
2016-09-05T11:35:26.517Z,95
2016-09-05T11:36:27.192Z,85
2016-09-05T11:37:27.861Z,80
2016-09-05T11:38:28.550Z,85
2016-09-05T11:39:29.195Z,85
2016-09-05T11:40:29.893Z,90
2016-09-05T11:41:30.560Z,95
2016-09-05T11:42:31.200Z,100
2016-09-05T11:43:31.843Z,110
2016-09-05T11:44:32.540Z,120
2016-09-05T11:45:33.170Z,135
2016-09-05T11:46:33.832Z,145
2016-09-05T11:47:34.487Z,150
2016-09-05T11:48:35.157Z,155
2016-09-05T11:49:35.826Z,160
2016-09-05T11:50:36.465Z,170
2016-09-05T11:51:37.085Z,180
2016-09-05T11:52:37.743Z,190
2016-09-05T11:53:38.523Z,195
2016-09-05T11:54:39.231Z,205
2016-09-05T11:55:39.878Z,220
2016-09-05T11:56:40.531Z,240
2016-09-05T11:57:41.167Z,260
2016-09-05T11:58:41.802Z,280
2016-09-05T11:59:42.438Z,300
2016-09-05T12:00:43.115Z,320
2016-09-05T12:01:43.762Z,340
2016-09-05T12:02:44.400Z,360
2016-09-05T12:03:45.048Z,375
2016-09-05T12:04:45.690Z,375
2016-09-05T12:05:46.337Z,375
2016-09-05T12:06:46.986Z,370
2016-09-05T12:07:47.704Z,365
2016-09-05T12:08:48.367Z,360
2016-09-05T12:09:49.016Z,355
2016-09-05T12:10:49.662Z,340
2016-09-05T12:11:50.297Z,340
2016-09-05T12:12:50.946Z,330
2016-09-05T12:13:51.601Z,315
2016-09-05T12:14:52.235Z,295
2016-09-05T12:15:52.886Z,285
2016-09-05T12:16:53.534Z,260
2016-09-05T12:17:54.164Z,240
2016-09-05T12:18:54.822Z,200
2016-09-05T12:19:55.463Z,175
2016-09-05T12:20:56.103Z,145
2016-09-05T12:21:56.746Z,130
2016-09-05T12:22:57.399Z,120
2016-09-05T12:23:58.055Z,120
2016-09-05T12:24:58.788Z,120
2016-09-05T12:25:59.418Z,110
2016-09-05T12:27:00.055Z,105
2016-09-05T12:28:00.696Z,100
2016-09-05T12:29:01.319Z,90
2016-09-05T12:30:01.964Z,90
2016-09-05T12:31:02.598Z,85
2016-09-05T12:32:03.218Z,85
2016-09-05T12:33:03.856Z,85
2016-09-05T12:34:04.481Z,90
2016-09-05T12:35:05.134Z,100
2016-09-05T12:36:05.784Z,105
2016-09-05T12:37:06.421Z,110
2016-09-05T12:38:07.100Z,115
2016-09-05T12:39:07.753Z,120
2016-09-05T12:40:08.399Z,120
2016-09-05T12:41:09.054Z,125
2016-09-05T12:42:09.685Z,125
2016-09-05T12:43:10.312Z,125
2016-09-05T12:44:10.947Z,130
2016-09-05T12:45:11.603Z,130
2016-09-05T12:46:12.238Z,125
2016-09-05T12:47:12.874Z,125
2016-09-05T12:48:13.512Z,130
2016-09-05T12:49:14.139Z,135
2016-09-05T12:50:14.774Z,150
2016-09-05T12:51:15.445Z,165
2016-09-05T12:52:16.071Z,185
2016-09-05T12:53:16.706Z,215
2016-09-05T12:54:17.346Z,235
2016-09-05T12:55:17.984Z,255
2016-09-05T12:56:18.622Z,275
2016-09-05T12:57:19.265Z,275
2016-09-05T12:58:19.894Z,275
2016-09-05T12:59:20.620Z,275
2016-09-05T13:00:21.308Z,280
2016-09-05T13:01:21.938Z,280
2016-09-05T13:02:22.578Z,275
2016-09-05T13:03:23.244Z,275
2016-09-05T13:04:23.904Z,275
2016-09-05T13:05:24.543Z,270
2016-09-05T13:06:25.198Z,275
2016-09-05T13:07:25.847Z,275
2016-09-05T13:08:26.493Z,280
2016-09-05T13:09:27.121Z,285
2016-09-05T13:10:27.758Z,290
2016-09-05T13:11:28.394Z,295
2016-09-05T13:12:29.023Z,300
2016-09-05T13:13:29.675Z,300
2016-09-05T13:14:30.350Z,305
2016-09-05T13:15:30.981Z,310
2016-09-05T13:16:31.620Z,320
2016-09-05T13:17:32.263Z,325
2016-09-05T13:18:32.900Z,325
2016-09-05T13:19:33.526Z,325
2016-09-05T13:20:34.161Z,320
2016-09-05T13:21:34.798Z,320
2016-09-05T13:22:35.450Z,325
2016-09-05T13:23:36.079Z,330
2016-09-05T13:24:36.707Z,325
2016-09-05T13:25:37.372Z,325
2016-09-05T13:26:38.082Z,325
2016-09-05T13:27:38.722Z,330
2016-09-05T13:28:39.378Z,325
2016-09-05T13:29:40.038Z,325
2016-09-05T13:30:40.689Z,320
2016-09-05T13:31:41.329Z,325
2016-09-05T13:32:41.956Z,325
2016-09-05T13:33:42.585Z,325
2016-09-05T13:34:43.229Z,315
2016-09-05T13:35:43.874Z,315
2016-09-05T13:36:44.519Z,310
2016-09-05T13:37:45.164Z,310
2016-09-05T13:38:45.791Z,315
2016-09-05T13:39:46.433Z,315
2016-09-05T13:40:47.094Z,310
2016-09-05T13:41:47.709Z,305
2016-09-05T13:42:48.358Z,305
2016-09-05T13:43:48.985Z,295
2016-09-05T13:44:49.637Z,295
2016-09-05T13:45:50.277Z,305
2016-09-05T13:46:50.898Z,310
2016-09-05T13:47:51.533Z,315
2016-09-05T13:48:52.170Z,320
2016-09-05T13:49:52.806Z,310
2016-09-05T13:50:53.424Z,310
2016-09-05T13:51:54.057Z,320
2016-09-05T13:52:54.684Z,315
2016-09-05T13:53:55.302Z,320
2016-09-05T13:54:55.928Z,325
2016-09-05T13:55:56.558Z,315
2016-09-05T13:56:57.193Z,310
2016-09-05T13:57:57.844Z,300
2016-09-05T13:58:58.495Z,295
2016-09-05T13:59:59.134Z,295
2016-09-05T14:00:59.763Z,290
2016-09-05T14:02:00.502Z,280
2016-09-05T14:03:01.130Z,270
2016-09-05T14:04:01.810Z,265
2016-09-05T14:05:02.532Z,260
2016-09-05T14:06:03.203Z,260
2016-09-05T14:07:03.905Z,255
2016-09-05T14:08:04.591Z,240
2016-09-05T14:09:05.239Z,205
2016-09-05T14:10:05.892Z,175
2016-09-05T14:11:06.542Z,165
2016-09-05T14:12:07.192Z,170
2016-09-05T14:13:07.850Z,170
2016-09-05T14:14:08.513Z,175
2016-09-05T14:15:09.158Z,175
2016-09-05T14:16:09.804Z,170
2016-09-05T14:17:10.487Z,160
2016-09-05T14:18:11.139Z,155